Time;durP1;ratioP1;P1;durP2;ratioP2;P2;SDS_P1;SDS_P2;PMS_P1;PMS_P2;Temp;Humidity;BMP_temperature;BMP_pressure;BME280_temperature;BME280_humidity;BME280_pressure;Samples;Min_cycle;Max_cycle;Signal;HPM_P1;HPM_P2
2021/09/20 00:01:42;;;;;;;20.80;17.03;;;13.50;99.90;;;;;;4857184;29;20466;-63
2021/09/20 00:04:11;;;;;;;22.10;15.67;;;13.50;99.90;;;;;;4877420;29;20566;-63
2021/09/20 00:06:39;;;;;;;18.73;15.17;;;13.40;99.90;;;;;;4879824;29;20550;-62
2021/09/20 00:09:08;;;;;;;18.43;14.97;;;13.40;99.90;;;;;;4877908;29;20882;-63
2021/09/20 00:11:37;;;;;;;20.40;15.53;;;13.40;99.90;;;;;;4875199;29;20190;-63
2021/09/20 00:14:05;;;;;;;20.33;15.43;;;13.40;99.90;;;;;;4873371;29;20214;-62
2021/09/20 00:16:34;;;;;;;23.00;17.10;;;13.40;99.90;;;;;;4859413;29;20195;-63
2021/09/20 00:19:04;;;;;;;19.87;15.77;;;13.30;99.90;;;;;;4860413;29;20266;-63
2021/09/20 00:21:33;;;;;;;18.67;14.80;;;13.30;99.90;;;;;;4875723;29;20206;-62
2021/09/20 00:24:01;;;;;;;17.90;14.73;;;13.30;99.90;;;;;;4839945;29;20565;-64
2021/09/20 00:26:29;;;;;;;18.67;15.23;;;13.30;99.90;;;;;;4874740;29;20282;-63
2021/09/20 00:28:58;;;;;;;16.63;14.60;;;13.30;99.90;;;;;;4874165;29;20203;-63
2021/09/20 00:31:27;;;;;;;19.37;15.67;;;13.30;99.90;;;;;;4859742;29;20203;-62
2021/09/20 00:33:55;;;;;;;21.00;15.63;;;13.30;99.90;;;;;;4857413;29;20201;-62
2021/09/20 00:36:25;;;;;;;21.77;16.17;;;13.30;99.90;;;;;;4857731;29;20627;-63
2021/09/20 00:38:53;;;;;;;18.17;14.63;;;13.20;99.90;;;;;;4873164;29;20207;-62
2021/09/20 00:41:22;;;;;;;19.20;14.47;;;13.20;99.90;;;;;;4876402;29;20282;-63
2021/09/20 00:43:50;;;;;;;18.27;14.17;;;13.10;99.90;;;;;;4873421;29;20234;-63
2021/09/20 00:46:22;;;;;;;20.43;15.10;;;13.10;99.90;;;;;;4875668;29;20301;-63
2021/09/20 00:48:50;;;;;;;20.50;15.40;;;13.10;99.90;;;;;;4875692;29;20593;-64
2021/09/20 00:51:19;;;;;;;17.13;14.33;;;13.00;99.90;;;;;;4861725;29;20201;-63
2021/09/20 00:53:49;;;;;;;23.40;16.00;;;12.90;99.90;;;;;;4856901;29;20223;-63
2021/09/20 00:56:18;;;;;;;16.13;13.97;;;12.90;99.90;;;;;;4874292;29;20227;-62
2021/09/20 00:58:47;;;;;;;14.60;13.00;;;13.00;99.90;;;;;;4881145;29;20234;-62
2021/09/20 01:01:16;;;;;;;15.60;13.87;;;13.00;99.90;;;;;;4870338;29;20663;-63
2021/09/20 01:03:45;;;;;;;15.23;13.13;;;13.00;99.90;;;;;;4876068;29;20194;-63
2021/09/20 01:06:14;;;;;;;18.10;14.87;;;13.00;99.90;;;;;;4873733;29;20305;-63
2021/09/20 01:08:42;;;;;;;18.07;13.90;;;12.90;99.90;;;;;;4872084;29;20268;-64
2021/09/20 01:11:15;;;;;;;17.83;13.93;;;12.90;99.90;;;;;;4871888;29;20195;-63
2021/09/20 01:13:44;;;;;;;19.83;15.40;;;12.80;99.90;;;;;;4873124;29;20670;-65
2021/09/20 01:16:12;;;;;;;19.17;15.00;;;12.80;99.90;;;;;;4870764;29;20242;-63
2021/09/20 01:18:43;;;;;;;21.00;14.13;;;12.80;99.90;;;;;;4874430;29;20210;-63
2021/09/20 01:21:15;;;;;;;19.43;15.60;;;12.80;99.90;;;;;;4873661;29;20199;-64
2021/09/20 01:23:45;;;;;;;21.00;15.17;;;12.70;99.90;;;;;;4872347;29;20207;-63
2021/09/20 01:26:15;;;;;;;21.47;14.80;;;12.60;99.90;;;;;;4876860;29;20290;-63
2021/09/20 01:28:43;;;;;;;18.37;14.30;;;12.60;99.90;;;;;;4875407;29;20202;-62
2021/09/20 01:31:12;;;;;;;19.70;14.30;;;12.60;99.90;;;;;;4875027;29;20196;-65
2021/09/20 01:33:41;;;;;;;18.00;14.30;;;12.70;99.90;;;;;;4871757;29;20558;-63
2021/09/20 01:36:09;;;;;;;19.20;15.53;;;12.60;99.90;;;;;;4874080;29;20199;-63
2021/09/20 01:38:38;;;;;;;20.30;14.67;;;12.60;99.90;;;;;;4876793;29;20257;-65
2021/09/20 01:41:08;;;;;;;19.73;15.43;;;12.50;99.90;;;;;;4874510;29;20273;-63
2021/09/20 01:43:36;;;;;;;16.57;13.73;;;12.50;99.90;;;;;;4876006;29;20231;-62
2021/09/20 01:46:04;;;;;;;19.20;13.83;;;12.50;99.90;;;;;;4876633;29;20247;-62
2021/09/20 01:48:33;;;;;;;23.10;14.97;;;12.50;99.90;;;;;;4858719;29;20194;-63
2021/09/20 01:51:01;;;;;;;18.10;14.00;;;12.40;99.90;;;;;;4856683;29;20203;-63
2021/09/20 01:53:30;;;;;;;16.53;14.10;;;12.40;99.90;;;;;;4855531;29;20211;-63
2021/09/20 01:55:59;;;;;;;18.27;13.97;;;12.40;99.90;;;;;;4879223;29;20226;-63
2021/09/20 01:58:31;;;;;;;18.33;14.60;;;12.40;99.90;;;;;;4873323;29;20223;-64
2021/09/20 02:00:59;;;;;;;18.87;14.93;;;12.40;99.90;;;;;;4870247;29;20249;-64
2021/09/20 02:03:28;;;;;;;21.33;16.00;;;12.40;99.90;;;;;;4874672;29;20231;-62
2021/09/20 02:05:57;;;;;;;19.27;14.33;;;12.30;99.90;;;;;;4873460;29;20833;-63
2021/09/20 02:08:28;;;;;;;21.97;14.30;;;12.30;99.90;;;;;;4869692;29;20218;-64
2021/09/20 02:10:57;;;;;;;17.47;13.60;;;12.30;99.90;;;;;;4875171;29;20321;-63
2021/09/20 02:13:25;;;;;;;17.03;14.50;;;12.20;99.90;;;;;;4872915;29;20479;-63
2021/09/20 02:15:58;;;;;;;19.00;15.07;;;12.20;99.90;;;;;;4871873;29;20199;-63
2021/09/20 02:18:26;;;;;;;19.10;14.00;;;12.10;99.90;;;;;;4871131;29;20207;-63
2021/09/20 02:20:55;;;;;;;17.47;13.07;;;12.00;99.90;;;;;;4857438;29;20210;-62
2021/09/20 02:23:24;;;;;;;19.73;15.23;;;12.00;99.90;;;;;;4858103;29;20203;-62
2021/09/20 02:25:52;;;;;;;20.50;15.03;;;12.00;99.90;;;;;;4858214;29;20234;-64
2021/09/20 02:28:23;;;;;;;17.23;13.97;;;12.00;99.90;;;;;;4853268;29;20306;-63
2021/09/20 02:30:54;;;;;;;19.17;14.30;;;12.00;99.90;;;;;;4873708;29;20285;-66
2021/09/20 02:33:24;;;;;;;19.03;14.73;;;12.00;99.90;;;;;;4872676;29;20198;-63
2021/09/20 02:35:53;;;;;;;22.90;15.07;;;12.00;99.90;;;;;;4872095;29;20214;-65
2021/09/20 02:38:22;;;;;;;23.60;16.20;;;12.00;99.90;;;;;;4871588;29;20214;-64
2021/09/20 02:40:50;;;;;;;19.27;14.63;;;12.10;99.90;;;;;;4872314;29;20625;-62
2021/09/20 02:43:19;;;;;;;20.80;14.33;;;12.10;99.90;;;;;;4873317;29;20205;-63
2021/09/20 02:45:48;;;;;;;20.60;14.50;;;12.10;99.90;;;;;;4861898;29;20643;-63
2021/09/20 02:48:17;;;;;;;17.23;13.27;;;12.10;99.90;;;;;;4873801;29;20214;-62
2021/09/20 02:50:50;;;;;;;17.33;13.70;;;12.10;99.90;;;;;;4863600;29;20210;-63
2021/09/20 02:53:20;;;;;;;18.90;13.57;;;12.10;99.90;;;;;;4857083;29;20195;-63
2021/09/20 02:55:50;;;;;;;21.47;13.93;;;12.10;99.90;;;;;;4855312;29;20267;-62
2021/09/20 02:58:20;;;;;;;19.37;12.77;;;12.10;99.90;;;;;;4854812;29;20199;-64
2021/09/20 03:00:58;;;;;;;19.43;13.37;;;12.00;99.90;;;;;;4845031;29;20202;-63
2021/09/20 03:03:29;;;;;;;17.80;13.50;;;12.00;99.90;;;;;;4861909;29;20375;-62
2021/09/20 03:06:07;;;;;;;19.27;13.90;;;11.90;99.90;;;;;;4846677;29;20690;-64
2021/09/20 03:08:35;;;;;;;17.93;13.40;;;11.90;99.90;;;;;;4875569;29;20235;-63
2021/09/20 03:11:04;;;;;;;16.57;13.33;;;11.90;99.90;;;;;;4862314;29;20630;-63
2021/09/20 03:13:32;;;;;;;15.27;12.87;;;11.90;99.90;;;;;;4855763;29;20210;-63
2021/09/20 03:16:01;;;;;;;13.40;11.50;;;11.80;99.90;;;;;;4873773;29;20199;-63
2021/09/20 03:18:30;;;;;;;16.70;12.33;;;11.80;99.90;;;;;;4878864;29;20663;-62
2021/09/20 03:21:01;;;;;;;18.20;12.93;;;11.80;99.90;;;;;;4875501;29;20227;-62
2021/09/20 03:23:31;;;;;;;17.57;12.77;;;11.80;99.90;;;;;;4872784;29;20198;-64
2021/09/20 03:25:59;;;;;;;16.20;12.50;;;11.70;99.90;;;;;;4877074;29;20233;-64
2021/09/20 03:28:28;;;;;;;19.70;13.63;;;11.70;99.90;;;;;;4876704;29;20661;-63
2021/09/20 03:30:56;;;;;;;20.03;12.80;;;11.70;99.90;;;;;;4874933;29;20202;-63
2021/09/20 03:33:25;;;;;;;20.73;13.30;;;11.70;99.90;;;;;;4859760;29;20210;-62
2021/09/20 03:35:54;;;;;;;14.63;11.67;;;11.70;99.90;;;;;;4878400;29;20211;-63
2021/09/20 03:38:22;;;;;;;16.00;12.27;;;11.70;99.90;;;;;;4871347;29;20263;-63
2021/09/20 03:40:52;;;;;;;17.77;12.90;;;11.70;99.90;;;;;;4874761;29;20266;-62
2021/09/20 03:43:21;;;;;;;14.00;11.70;;;11.60;99.90;;;;;;4875750;29;20206;-62
2021/09/20 03:45:53;;;;;;;15.70;11.73;;;11.60;99.90;;;;;;4859247;29;20203;-62
2021/09/20 03:48:22;;;;;;;17.87;12.07;;;11.60;99.90;;;;;;4876539;29;20221;-62
2021/09/20 03:50:51;;;;;;;17.83;12.77;;;11.50;99.90;;;;;;4858460;29;20255;-62
2021/09/20 03:53:19;;;;;;;22.53;14.90;;;11.50;99.90;;;;;;4874513;29;20322;-62
2021/09/20 03:55:48;;;;;;;17.87;13.40;;;11.50;99.90;;;;;;4860798;29;20662;-62
2021/09/20 03:58:18;;;;;;;21.73;14.70;;;11.40;99.90;;;;;;4875777;29;20203;-62
2021/09/20 04:00:46;;;;;;;21.53;14.60;;;11.50;99.90;;;;;;4873615;29;20203;-62
2021/09/20 04:03:15;;;;;;;20.10;14.70;;;11.50;99.90;;;;;;4875077;29;20726;-63
2021/09/20 04:05:43;;;;;;;20.13;13.77;;;11.50;99.90;;;;;;4872685;29;20263;-63
2021/09/20 04:08:15;;;;;;;17.73;13.50;;;11.50;99.90;;;;;;4858511;29;20733;-64
2021/09/20 04:10:44;;;;;;;22.03;13.83;;;11.40;99.90;;;;;;4871860;29;20204;-63
2021/09/20 04:13:40;;;;;;;26.07;14.47;;;11.40;99.90;;;;;;4843319;29;20200;-63
2021/09/20 04:16:50;;;;;;;19.83;13.50;;;11.40;99.90;;;;;;4874288;29;20290;-63
2021/09/20 04:19:18;;;;;;;22.37;13.57;;;11.50;99.90;;;;;;4857296;29;20203;-62
2021/09/20 04:21:47;;;;;;;18.40;13.00;;;11.40;99.90;;;;;;4857839;29;20239;-62
2021/09/20 04:24:21;;;;;;;20.13;13.40;;;11.40;99.90;;;;;;4862241;29;20218;-62
2021/09/20 04:26:49;;;;;;;17.20;12.67;;;11.40;99.90;;;;;;4873989;29;20194;-62
2021/09/20 04:29:19;;;;;;;24.30;13.77;;;11.40;99.90;;;;;;4874939;29;20310;-63
2021/09/20 04:31:48;;;;;;;20.17;12.53;;;11.50;99.90;;;;;;4872866;29;20211;-64
2021/09/20 04:34:16;;;;;;;18.07;12.80;;;11.60;99.90;;;;;;4858573;29;20261;-64
2021/09/20 04:36:45;;;;;;;17.60;12.13;;;11.60;99.90;;;;;;4868984;29;20623;-63
2021/09/20 04:39:14;;;;;;;18.17;12.23;;;11.70;99.90;;;;;;4858108;29;20193;-62
2021/09/20 04:41:44;;;;;;;18.70;12.30;;;11.70;99.90;;;;;;4859132;29;20271;-63
2021/09/20 04:44:13;;;;;;;21.23;12.50;;;11.70;99.90;;;;;;4856802;29;20655;-63
2021/09/20 04:46:47;;;;;;;21.57;13.40;;;11.70;99.90;;;;;;4841792;29;20206;-63
2021/09/20 04:49:15;;;;;;;20.57;12.57;;;11.70;99.90;;;;;;4857349;29;20555;-63
2021/09/20 04:51:44;;;;;;;17.00;11.87;;;11.70;99.90;;;;;;4876872;29;20203;-63
2021/09/20 04:54:15;;;;;;;17.30;12.70;;;11.70;99.90;;;;;;4872480;29;20544;-63
2021/09/20 04:56:44;;;;;;;22.60;12.93;;;11.70;99.90;;;;;;4876086;29;20222;-63
2021/09/20 04:59:12;;;;;;;17.57;11.87;;;11.70;99.90;;;;;;4853969;29;20203;-64
2021/09/20 05:01:40;;;;;;;20.10;12.63;;;11.70;99.90;;;;;;4860535;29;20222;-63
2021/09/20 05:04:13;;;;;;;18.07;12.77;;;11.70;99.90;;;;;;4867589;29;20210;-63
2021/09/20 05:06:42;;;;;;;21.83;13.10;;;11.80;99.90;;;;;;4860204;29;20195;-63
2021/09/20 05:09:13;;;;;;;18.73;12.77;;;11.80;99.90;;;;;;4844773;29;20214;-63
2021/09/20 05:11:41;;;;;;;21.20;13.10;;;11.80;99.90;;;;;;4872208;29;20206;-63
2021/09/20 05:14:09;;;;;;;19.97;12.57;;;11.80;99.90;;;;;;4875179;29;20306;-63
2021/09/20 05:16:38;;;;;;;20.73;13.13;;;11.80;99.90;;;;;;4873891;29;20463;-63
2021/09/20 05:19:07;;;;;;;20.67;13.37;;;11.80;99.90;;;;;;4873716;29;20203;-63
2021/09/20 05:21:36;;;;;;;20.83;12.93;;;11.80;99.90;;;;;;4877921;29;20199;-63
2021/09/20 05:24:06;;;;;;;18.27;12.20;;;11.80;99.90;;;;;;4858297;29;20207;-63
2021/09/20 05:26:34;;;;;;;22.50;12.63;;;11.80;99.90;;;;;;4873273;29;20610;-63
2021/09/20 05:29:03;;;;;;;21.77;14.30;;;11.80;99.90;;;;;;4852326;29;20590;-63
2021/09/20 05:31:37;;;;;;;22.47;13.80;;;11.80;99.90;;;;;;4852343;29;20663;-63
2021/09/20 05:34:45;;;;;;;21.13;12.60;;;11.90;99.90;;;;;;4870834;29;20195;-63
2021/09/20 05:37:18;;;;;;;23.40;13.70;;;11.90;99.90;;;;;;4855936;29;20202;-63
2021/09/20 05:39:46;;;;;;;28.17;14.40;;;11.90;99.90;;;;;;4877040;29;20225;-63
2021/09/20 05:42:15;;;;;;;22.87;13.77;;;11.90;99.90;;;;;;4862259;29;20587;-63
2021/09/20 05:44:44;;;;;;;23.67;14.27;;;12.00;99.90;;;;;;4877874;29;20739;-63
2021/09/20 05:47:13;;;;;;;25.33;15.30;;;12.00;99.90;;;;;;4873730;29;20611;-63
2021/09/20 05:49:41;;;;;;;24.97;14.90;;;12.00;99.90;;;;;;4876142;29;20223;-63
2021/09/20 05:52:10;;;;;;;24.10;15.20;;;12.00;99.90;;;;;;4873905;29;20615;-63
2021/09/20 05:54:39;;;;;;;24.67;15.53;;;12.00;99.90;;;;;;4856960;29;20223;-63
2021/09/20 05:57:10;;;;;;;28.00;16.83;;;12.00;99.90;;;;;;4873956;29;20275;-63
2021/09/20 05:59:38;;;;;;;26.23;16.40;;;12.10;99.90;;;;;;4853745;29;20259;-63
2021/09/20 06:02:07;;;;;;;23.70;15.70;;;12.20;99.90;;;;;;4863791;29;20203;-63
2021/09/20 06:04:35;;;;;;;29.77;16.40;;;12.20;99.90;;;;;;4874223;29;20199;-63
2021/09/20 06:07:04;;;;;;;28.20;17.17;;;12.20;99.90;;;;;;4880161;29;20222;-63
2021/09/20 06:09:35;;;;;;;30.87;17.20;;;12.30;99.90;;;;;;4879134;29;20246;-63
2021/09/20 06:12:06;;;;;;;27.33;16.50;;;12.30;99.90;;;;;;4873774;29;20249;-63
2021/09/20 06:14:34;;;;;;;26.77;16.57;;;12.40;99.90;;;;;;4871653;29;20236;-63
2021/09/20 06:17:04;;;;;;;26.60;16.47;;;12.40;99.90;;;;;;4858242;29;20203;-63
2021/09/20 06:19:32;;;;;;;24.90;16.37;;;12.40;99.90;;;;;;4881429;29;20222;-63
2021/09/20 06:22:01;;;;;;;27.60;15.90;;;12.50;99.90;;;;;;4868715;29;20231;-63
2021/09/20 06:24:29;;;;;;;26.67;16.73;;;12.50;99.90;;;;;;4873579;29;20230;-63
2021/09/20 06:26:58;;;;;;;24.80;16.50;;;12.60;99.90;;;;;;4878060;29;20289;-63
2021/09/20 06:29:28;;;;;;;24.33;15.83;;;12.60;99.90;;;;;;4881114;29;20249;-63
2021/09/20 06:31:57;;;;;;;26.47;16.07;;;12.70;99.90;;;;;;4873436;29;20191;-63
2021/09/20 06:34:27;;;;;;;24.57;16.27;;;12.70;99.90;;;;;;4870121;29;20592;-63
2021/09/20 06:36:55;;;;;;;26.93;15.50;;;12.80;99.90;;;;;;4876325;29;20199;-64
2021/09/20 06:39:25;;;;;;;26.50;15.70;;;12.80;99.90;;;;;;4863040;29;20206;-63
2021/09/20 06:41:53;;;;;;;26.40;16.97;;;12.80;99.90;;;;;;4876083;29;20718;-63
2021/09/20 06:44:22;;;;;;;24.50;15.73;;;12.90;99.90;;;;;;4888714;29;20444;-63
2021/09/20 06:46:52;;;;;;;23.97;15.47;;;12.90;99.90;;;;;;4877925;29;20755;-63
2021/09/20 06:49:22;;;;;;;20.57;14.40;;;12.90;99.90;;;;;;4874348;29;20246;-63
2021/09/20 06:51:51;;;;;;;21.30;15.07;;;13.00;99.90;;;;;;4871974;29;20234;-63
2021/09/20 06:54:23;;;;;;;21.83;14.83;;;13.10;99.90;;;;;;4876920;29;20226;-63
2021/09/20 06:56:51;;;;;;;21.83;14.43;;;13.10;99.90;;;;;;4871795;29;20195;-63
2021/09/20 06:59:20;;;;;;;23.17;14.40;;;13.20;99.90;;;;;;4861288;29;20195;-63
2021/09/20 07:01:48;;;;;;;20.80;14.17;;;13.20;99.90;;;;;;4876953;29;20227;-63
2021/09/20 07:04:18;;;;;;;21.33;14.93;;;13.20;99.90;;;;;;4876595;29;20547;-63
2021/09/20 07:06:47;;;;;;;21.40;15.00;;;13.30;99.90;;;;;;4864816;29;20201;-63
2021/09/20 07:09:16;;;;;;;20.43;14.77;;;13.30;99.90;;;;;;4873455;29;20246;-63
2021/09/20 07:11:45;;;;;;;24.80;15.03;;;13.40;99.90;;;;;;4877645;29;20234;-63
2021/09/20 07:14:13;;;;;;;18.33;13.30;;;13.40;99.90;;;;;;4872224;29;20226;-63
2021/09/20 07:16:42;;;;;;;19.03;14.27;;;13.50;99.90;;;;;;4880450;29;20199;-63
2021/09/20 07:19:10;;;;;;;24.23;15.13;;;13.60;99.90;;;;;;4875818;29;20259;-63
2021/09/20 07:21:40;;;;;;;20.03;13.87;;;13.60;99.90;;;;;;4874275;29;20202;-63
2021/09/20 07:24:09;;;;;;;25.27;14.70;;;13.70;99.90;;;;;;4875968;29;20203;-63
2021/09/20 07:26:37;;;;;;;21.20;15.03;;;13.70;99.90;;;;;;4880045;29;20610;-63
2021/09/20 07:29:05;;;;;;;23.67;14.73;;;13.70;99.90;;;;;;4880661;29;20759;-63
2021/09/20 07:31:34;;;;;;;19.53;14.27;;;13.60;99.90;;;;;;4877674;29;20202;-63
2021/09/20 07:34:03;;;;;;;22.60;14.40;;;13.60;99.90;;;;;;4879817;29;20285;-63
2021/09/20 07:36:31;;;;;;;20.43;14.67;;;13.70;99.90;;;;;;4873582;29;20230;-63
2021/09/20 07:39:01;;;;;;;20.67;14.30;;;13.70;99.90;;;;;;4879473;29;20210;-63
2021/09/20 07:41:30;;;;;;;18.53;13.77;;;13.70;99.90;;;;;;4877131;29;20238;-63
2021/09/20 07:43:58;;;;;;;21.23;14.00;;;13.80;99.90;;;;;;4878258;29;20234;-63
2021/09/20 07:46:26;;;;;;;27.87;15.17;;;13.90;99.90;;;;;;4875056;29;20237;-63
2021/09/20 07:48:55;;;;;;;22.03;14.90;;;14.00;99.90;;;;;;4875025;29;20747;-63
2021/09/20 07:51:23;;;;;;;19.17;13.67;;;14.00;99.90;;;;;;4877819;29;20967;-63
2021/09/20 07:53:52;;;;;;;23.20;13.87;;;14.10;99.90;;;;;;4864820;29;20254;-63
2021/09/20 07:56:22;;;;;;;21.70;13.23;;;14.20;99.90;;;;;;4880852;29;20197;-63
2021/09/20 07:58:51;;;;;;;20.70;14.60;;;14.30;99.90;;;;;;4880228;29;20251;-63
2021/09/20 08:01:19;;;;;;;24.03;13.67;;;14.40;99.90;;;;;;4874582;29;20187;-63
2021/09/20 08:03:52;;;;;;;18.60;13.70;;;14.60;99.90;;;;;;4863115;29;20222;-63
2021/09/20 08:06:21;;;;;;;22.83;13.80;;;14.80;99.90;;;;;;4862650;29;20200;-63
2021/09/20 08:08:50;;;;;;;18.63;12.83;;;14.80;99.90;;;;;;4878649;29;20262;-63
2021/09/20 08:11:18;;;;;;;16.47;12.87;;;14.90;99.90;;;;;;4859126;29;20337;-63
2021/09/20 08:13:49;;;;;;;25.47;13.10;;;14.90;99.90;;;;;;4877354;29;20738;-63
2021/09/20 08:16:17;;;;;;;16.23;12.33;;;15.00;99.90;;;;;;4861838;29;20266;-63
2021/09/20 08:18:46;;;;;;;21.63;12.37;;;14.90;99.90;;;;;;4882628;29;20287;-63
2021/09/20 08:21:14;;;;;;;16.17;11.80;;;14.90;99.90;;;;;;4878601;29;20602;-63
2021/09/20 08:23:43;;;;;;;19.70;12.40;;;15.00;99.90;;;;;;4858349;29;20293;-63
2021/09/20 08:26:11;;;;;;;15.97;11.40;;;15.00;99.90;;;;;;4879307;29;20238;-63
2021/09/20 08:28:41;;;;;;;16.23;12.27;;;15.30;99.90;;;;;;4874881;29;20294;-63
2021/09/20 08:31:11;;;;;;;15.10;11.73;;;15.40;99.90;;;;;;4862884;29;20677;-63
2021/09/20 08:33:39;;;;;;;15.23;11.83;;;15.60;99.90;;;;;;4869399;29;20687;-63
2021/09/20 08:36:10;;;;;;;16.57;12.17;;;15.60;99.90;;;;;;4877742;29;20241;-63
2021/09/20 08:38:39;;;;;;;20.03;12.73;;;15.60;99.90;;;;;;4875581;29;20581;-63
2021/09/20 08:41:08;;;;;;;15.37;12.43;;;15.60;99.90;;;;;;4872805;29;20326;-63
2021/09/20 08:43:38;;;;;;;17.50;11.97;;;15.70;99.90;;;;;;4878805;29;20634;-63
2021/09/20 08:46:07;;;;;;;15.97;11.73;;;15.70;99.90;;;;;;4878581;29;20198;-63
2021/09/20 08:48:41;;;;;;;14.70;11.73;;;15.70;99.90;;;;;;4873435;29;20198;-63
2021/09/20 08:51:11;;;;;;;17.50;12.50;;;15.60;99.90;;;;;;4881903;29;20221;-63
2021/09/20 08:53:40;;;;;;;16.73;11.03;;;15.60;99.90;;;;;;4872614;29;20199;-63
2021/09/20 08:56:09;;;;;;;14.97;10.77;;;15.60;99.90;;;;;;4868980;29;20231;-63
2021/09/20 08:58:38;;;;;;;17.23;10.97;;;15.60;99.90;;;;;;4861626;29;20215;-63
2021/09/20 09:01:07;;;;;;;15.83;11.00;;;15.70;99.90;;;;;;4866906;29;20198;-63
2021/09/20 09:03:37;;;;;;;13.73;10.47;;;15.90;99.90;;;;;;4872543;29;20620;-63
2021/09/20 09:06:06;;;;;;;14.83;10.53;;;16.10;99.90;;;;;;4880619;29;20563;-63
2021/09/20 09:08:37;;;;;;;15.97;11.13;;;16.20;99.90;;;;;;4877186;29;20252;-63
2021/09/20 09:11:11;;;;;;;12.77;10.33;;;16.50;99.90;;;;;;4880187;29;20448;-63
2021/09/20 09:13:43;;;;;;;13.67;9.87;;;16.60;99.90;;;;;;4858174;29;20543;-63
2021/09/20 09:16:15;;;;;;;10.83;9.10;;;16.70;99.90;;;;;;4878681;29;20206;-63
2021/09/20 09:19:15;;;;;;;13.63;9.00;;;16.90;99.90;;;;;;4879310;29;20585;-63
2021/09/20 09:21:46;;;;;;;12.27;9.17;;;16.80;99.90;;;;;;4813111;29;20201;-63
2021/09/20 09:24:16;;;;;;;14.33;9.10;;;16.90;99.90;;;;;;4863921;29;20250;-63
2021/09/20 09:26:55;;;;;;;12.27;8.67;;;16.90;99.90;;;;;;4879106;29;20239;-63
2021/09/20 09:29:26;;;;;;;13.00;8.70;;;17.20;99.90;;;;;;4876473;29;20640;-63
2021/09/20 09:31:57;;;;;;;9.57;8.47;;;17.30;99.90;;;;;;4869256;29;20654;-63
2021/09/20 09:34:29;;;;;;;13.60;9.13;;;17.50;99.90;;;;;;4883681;29;20233;-63
2021/09/20 09:37:08;;;;;;;16.40;8.93;;;17.60;99.90;;;;;;4875401;29;20252;-63
2021/09/20 09:39:37;;;;;;;15.50;9.93;;;17.60;99.90;;;;;;4873979;29;20235;-63
2021/09/20 09:42:20;;;;;;;14.27;10.00;;;17.70;99.90;;;;;;4876561;29;20250;-63
2021/09/20 09:44:50;;;;;;;12.77;9.63;;;17.70;99.90;;;;;;4874688;29;20206;-63
2021/09/20 09:47:27;;;;;;;17.13;10.13;;;17.90;99.90;;;;;;4869206;29;20203;-63
2021/09/20 09:50:18;;;;;;;17.63;10.40;;;18.10;99.90;;;;;;4875017;29;20658;-63
2021/09/20 09:52:49;;;;;;;11.77;8.93;;;18.40;99.90;;;;;;4853191;29;20237;-63
2021/09/20 09:55:17;;;;;;;12.30;9.30;;;18.30;99.90;;;;;;4872556;29;20198;-63
2021/09/20 09:57:52;;;;;;;14.37;10.77;;;18.30;99.90;;;;;;4879482;29;20301;-63
2021/09/20 10:00:23;;;;;;;13.87;10.50;;;18.30;99.90;;;;;;4876699;29;20254;-63
2021/09/20 10:02:52;;;;;;;12.37;9.83;;;18.40;99.90;;;;;;4873761;29;20274;-63
2021/09/20 10:05:24;;;;;;;14.07;9.63;;;18.50;99.90;;;;;;4874449;29;20202;-63
2021/09/20 10:07:54;;;;;;;11.07;7.97;;;18.60;99.90;;;;;;4872219;29;20213;-63
2021/09/20 10:10:26;;;;;;;12.23;8.83;;;18.60;99.90;;;;;;4865782;29;20286;-63
2021/09/20 10:12:57;;;;;;;13.10;9.60;;;18.60;99.90;;;;;;4871626;29;20448;-63
2021/09/20 10:15:27;;;;;;;12.90;8.77;;;18.60;99.90;;;;;;4859195;29;20562;-63
2021/09/20 10:17:56;;;;;;;11.23;8.60;;;18.50;99.90;;;;;;4859191;29;20289;-63
2021/09/20 10:20:28;;;;;;;8.73;7.37;;;18.40;99.90;;;;;;4875100;29;20291;-63
2021/09/20 10:22:57;;;;;;;11.63;7.43;;;18.30;99.90;;;;;;4872135;29;20196;-63
2021/09/20 10:25:29;;;;;;;11.10;8.47;;;18.40;99.90;;;;;;4875799;29;20207;-63
2021/09/20 10:27:59;;;;;;;10.70;7.97;;;18.40;99.90;;;;;;4874686;29;20667;-63
2021/09/20 10:30:31;;;;;;;11.30;8.17;;;18.20;99.90;;;;;;4875124;29;20199;-63
2021/09/20 10:33:04;;;;;;;13.40;8.23;;;18.20;99.90;;;;;;4866801;29;20257;-63
2021/09/20 10:35:38;;;;;;;9.43;8.53;;;18.10;99.90;;;;;;4872491;29;20298;-63
2021/09/20 10:38:26;;;;;;;13.77;8.23;;;18.20;99.90;;;;;;4871167;29;20263;-63
2021/09/20 10:41:08;;;;;;;10.90;8.23;;;18.30;99.90;;;;;;4870792;29;20499;-63
2021/09/20 10:43:37;;;;;;;14.90;8.27;;;18.40;99.90;;;;;;4856951;29;20238;-63
2021/09/20 10:46:18;;;;;;;10.07;8.43;;;18.30;99.90;;;;;;4875776;29;20252;-63
2021/09/20 10:48:54;;;;;;;10.30;7.47;;;18.30;99.90;;;;;;4867678;29;20303;-63
2021/09/20 10:51:31;;;;;;;9.50;7.30;;;18.20;99.90;;;;;;4880522;29;20274;-63
2021/09/20 10:54:22;;;;;;;9.40;7.20;;;18.20;99.90;;;;;;4870322;29;20223;-63
2021/09/20 10:56:53;;;;;;;11.47;7.30;;;18.50;99.90;;;;;;4854228;29;20242;-63
2021/09/20 10:59:26;;;;;;;9.87;8.13;;;18.50;99.90;;;;;;4871636;29;20295;-63
2021/09/20 11:02:05;;;;;;;9.30;7.63;;;18.40;99.90;;;;;;4871598;29;20710;-63
2021/09/20 11:04:37;;;;;;;8.80;7.47;;;18.40;99.90;;;;;;4868709;29;20230;-63
2021/09/20 11:07:14;;;;;;;12.07;8.33;;;18.50;99.90;;;;;;4871978;29;20262;-63
2021/09/20 11:10:03;;;;;;;16.10;8.23;;;18.60;99.90;;;;;;4877186;29;20218;-63
2021/09/20 11:12:37;;;;;;;10.70;8.70;;;18.50;99.90;;;;;;4872917;29;20706;-63
2021/09/20 11:15:13;;;;;;;11.27;8.20;;;18.50;99.90;;;;;;4875243;29;20580;-63
2021/09/20 11:17:48;;;;;;;10.90;8.37;;;18.60;99.90;;;;;;4880992;29;20211;-63
2021/09/20 11:20:36;;;;;;;9.63;8.40;;;18.70;99.90;;;;;;4868004;29;20317;-63
2021/09/20 11:23:24;;;;;;;10.40;8.50;;;18.90;99.90;;;;;;4875465;29;20749;-63
2021/09/20 11:26:11;;;;;;;12.00;8.57;;;19.20;99.90;;;;;;4874517;29;20350;-63
2021/09/20 11:28:42;;;;;;;11.00;8.63;;;19.30;99.90;;;;;;4875547;29;20237;-63
2021/09/20 11:31:10;;;;;;;12.77;8.53;;;19.60;99.90;;;;;;4879180;29;20223;-63
2021/09/20 11:33:41;;;;;;;14.80;8.97;;;19.70;99.90;;;;;;4880474;29;20707;-63
2021/09/20 11:36:19;;;;;;;9.83;8.77;;;19.80;99.90;;;;;;4877592;29;20195;-64
2021/09/20 11:38:49;;;;;;;12.20;8.93;;;19.60;99.90;;;;;;4873939;29;20598;-64
2021/09/20 11:41:22;;;;;;;12.30;9.43;;;19.70;99.90;;;;;;4878724;29;20327;-64
2021/09/20 11:43:52;;;;;;;17.97;9.03;;;19.60;99.90;;;;;;4868275;29;20203;-63
2021/09/20 11:46:23;;;;;;;12.00;9.00;;;19.60;99.90;;;;;;4879915;29;20233;-65
2021/09/20 11:49:06;;;;;;;13.93;8.43;;;19.60;99.90;;;;;;4877904;29;20225;-66
2021/09/20 11:51:36;;;;;;;12.57;8.37;;;19.60;99.90;;;;;;4874471;29;20202;-70
2021/09/20 11:54:07;;;;;;;11.33;8.60;;;19.80;99.90;;;;;;4877759;29;20198;-62
2021/09/20 11:56:35;;;;;;;9.50;7.97;;;19.80;99.90;;;;;;4875894;29;20290;-63
2021/09/20 11:59:03;;;;;;;11.30;7.90;;;20.00;99.90;;;;;;4873828;29;20696;-63
2021/09/20 12:01:32;;;;;;;12.93;8.73;;;20.10;99.90;;;;;;4878392;29;20217;-63
2021/09/20 12:04:02;;;;;;;12.33;9.00;;;20.10;99.90;;;;;;4873831;29;20305;-63
2021/09/20 12:06:32;;;;;;;9.57;8.57;;;20.00;99.90;;;;;;4875719;29;20789;-63
2021/09/20 12:09:04;;;;;;;11.73;9.63;;;20.00;99.90;;;;;;4880829;29;20225;-63
2021/09/20 12:11:34;;;;;;;11.37;9.43;;;20.00;99.90;;;;;;4875686;29;20202;-62
2021/09/20 12:14:11;;;;;;;12.33;8.83;;;20.00;99.90;;;;;;4881186;29;20556;-63
2021/09/20 12:16:58;;;;;;;15.07;9.50;;;20.10;99.90;;;;;;4876122;29;20195;-62
2021/09/20 12:19:27;;;;;;;14.50;9.50;;;20.10;99.90;;;;;;4877932;29;20635;-63
2021/09/20 12:22:00;;;;;;;13.13;10.07;;;20.10;99.90;;;;;;4876771;29;20285;-63
2021/09/20 12:24:29;;;;;;;14.03;9.47;;;20.10;99.90;;;;;;4874656;29;20361;-63
2021/09/20 12:27:06;;;;;;;13.27;9.93;;;20.20;99.90;;;;;;4878299;29;20294;-63
2021/09/20 12:29:37;;;;;;;13.30;9.47;;;20.40;99.90;;;;;;4878548;29;20627;-63
2021/09/20 12:32:06;;;;;;;12.50;8.67;;;20.40;99.90;;;;;;4875507;29;20227;-67
2021/09/20 12:34:35;;;;;;;11.70;8.87;;;20.40;99.90;;;;;;4881427;29;20202;-67
2021/09/20 12:37:06;;;;;;;12.17;9.10;;;20.50;99.90;;;;;;4875542;29;20303;-67
2021/09/20 12:39:34;;;;;;;10.20;8.67;;;20.50;99.90;;;;;;4874318;29;20203;-64
2021/09/20 12:42:07;;;;;;;10.10;8.90;;;20.60;99.90;;;;;;4877924;29;20237;-64
2021/09/20 12:44:37;;;;;;;15.00;9.50;;;20.70;99.90;;;;;;4873645;29;20284;-64
2021/09/20 12:47:07;;;;;;;12.20;9.70;;;20.70;99.90;;;;;;4860531;29;20344;-64
2021/09/20 12:49:36;;;;;;;13.20;10.23;;;20.70;99.90;;;;;;4874757;29;20239;-64